sensor_id;sensor_type;location;lat;lon;timestamp;P1;durP1;ratioP1;P2;durP2;ratioP2
45326;SDS011;31062;49.678;24.560;2022-09-13T00:01:07;7.00;;;6.30;;
45326;SDS011;31062;49.678;24.560;2022-09-13T00:03:52;7.68;;;5.95;;
45326;SDS011;31062;49.678;24.560;2022-09-13T00:06:38;9.05;;;6.60;;
45326;SDS011;31062;49.678;24.560;2022-09-13T00:09:24;7.90;;;6.75;;
45326;SDS011;31062;49.678;24.560;2022-09-13T00:12:10;10.45;;;6.60;;
45326;SDS011;31062;49.678;24.560;2022-09-13T00:14:55;7.47;;;6.50;;
45326;SDS011;31062;49.678;24.560;2022-09-13T00:17:41;7.68;;;6.63;;
45326;SDS011;31062;49.678;24.560;2022-09-13T00:20:27;9.30;;;6.60;;
45326;SDS011;31062;49.678;24.560;2022-09-13T00:23:13;11.57;;;6.47;;
45326;SDS011;31062;49.678;24.560;2022-09-13T00:26:09;7.07;;;6.38;;
45326;SDS011;31062;49.678;24.560;2022-09-13T00:28:56;7.25;;;6.55;;
45326;SDS011;31062;49.678;24.560;2022-09-13T00:31:42;9.80;;;7.00;;
45326;SDS011;31062;49.678;24.560;2022-09-13T00:34:28;9.88;;;6.82;;
45326;SDS011;31062;49.678;24.560;2022-09-13T00:37:13;7.32;;;6.63;;
45326;SDS011;31062;49.678;24.560;2022-09-13T00:39:59;8.88;;;6.63;;
45326;SDS011;31062;49.678;24.560;2022-09-13T00:42:46;8.52;;;6.90;;
45326;SDS011;31062;49.678;24.560;2022-09-13T00:45:31;8.45;;;7.63;;
45326;SDS011;31062;49.678;24.560;2022-09-13T00:48:18;10.43;;;6.75;;
45326;SDS011;31062;49.678;24.560;2022-09-13T00:51:06;7.93;;;7.18;;
45326;SDS011;31062;49.678;24.560;2022-09-13T00:53:54;10.35;;;6.57;;
45326;SDS011;31062;49.678;24.560;2022-09-13T00:56:44;6.57;;;5.65;;
45326;SDS011;31062;49.678;24.560;2022-09-13T00:59:36;8.68;;;7.05;;
45326;SDS011;31062;49.678;24.560;2022-09-13T01:03:08;7.80;;;6.40;;
45326;SDS011;31062;49.678;24.560;2022-09-13T01:05:59;7.57;;;6.40;;
45326;SDS011;31062;49.678;24.560;2022-09-13T01:08:57;6.53;;;5.88;;
45326;SDS011;31062;49.678;24.560;2022-09-13T01:11:49;6.32;;;5.72;;
45326;SDS011;31062;49.678;24.560;2022-09-13T01:14:40;6.60;;;6.00;;
45326;SDS011;31062;49.678;24.560;2022-09-13T01:17:27;6.90;;;6.05;;
45326;SDS011;31062;49.678;24.560;2022-09-13T01:20:15;6.38;;;5.78;;
45326;SDS011;31062;49.678;24.560;2022-09-13T01:47:50;5.68;;;5.18;;
45326;SDS011;31062;49.678;24.560;2022-09-13T01:50:41;8.10;;;5.93;;
45326;SDS011;31062;49.678;24.560;2022-09-13T01:53:36;7.43;;;5.55;;
45326;SDS011;31062;49.678;24.560;2022-09-13T01:59:55;10.32;;;5.50;;
45326;SDS011;31062;49.678;24.560;2022-09-13T02:06:29;6.05;;;5.45;;
45326;SDS011;31062;49.678;24.560;2022-09-13T02:09:20;7.53;;;5.68;;
45326;SDS011;31062;49.678;24.560;2022-09-13T02:12:11;6.22;;;4.85;;
45326;SDS011;31062;49.678;24.560;2022-09-13T02:15:07;6.63;;;5.23;;
45326;SDS011;31062;49.678;24.560;2022-09-13T02:17:57;6.70;;;4.55;;
45326;SDS011;31062;49.678;24.560;2022-09-13T02:20:50;5.25;;;4.75;;
45326;SDS011;31062;49.678;24.560;2022-09-13T02:23:46;7.70;;;5.47;;
45326;SDS011;31062;49.678;24.560;2022-09-13T02:26:39;7.75;;;4.80;;
45326;SDS011;31062;49.678;24.560;2022-09-13T02:29:27;5.38;;;4.53;;
45326;SDS011;31062;49.678;24.560;2022-09-13T02:32:29;5.45;;;4.95;;
45326;SDS011;31062;49.678;24.560;2022-09-13T02:35:24;5.60;;;5.07;;
45326;SDS011;31062;49.678;24.560;2022-09-13T02:38:50;8.40;;;5.00;;
45326;SDS011;31062;49.678;24.560;2022-09-13T02:41:45;6.43;;;4.28;;
45326;SDS011;31062;49.678;24.560;2022-09-13T02:44:46;6.40;;;5.78;;
45326;SDS011;31062;49.678;24.560;2022-09-13T02:50:48;6.28;;;4.72;;
45326;SDS011;31062;49.678;24.560;2022-09-13T02:53:49;7.45;;;5.28;;
45326;SDS011;31062;49.678;24.560;2022-09-13T02:56:59;6.55;;;5.25;;
45326;SDS011;31062;49.678;24.560;2022-09-13T02:59:51;7.30;;;5.10;;
45326;SDS011;31062;49.678;24.560;2022-09-13T03:02:37;7.15;;;5.28;;
45326;SDS011;31062;49.678;24.560;2022-09-13T03:05:26;6.40;;;5.43;;
45326;SDS011;31062;49.678;24.560;2022-09-13T03:08:12;6.28;;;5.45;;
45326;SDS011;31062;49.678;24.560;2022-09-13T03:33:10;5.35;;;4.85;;
45326;SDS011;31062;49.678;24.560;2022-09-13T03:36:20;6.45;;;5.63;;
45326;SDS011;31062;49.678;24.560;2022-09-13T03:42:31;7.53;;;4.88;;
45326;SDS011;31062;49.678;24.560;2022-09-13T03:45:24;5.93;;;5.10;;
45326;SDS011;31062;49.678;24.560;2022-09-13T03:48:14;9.15;;;5.45;;
45326;SDS011;31062;49.678;24.560;2022-09-13T03:51:01;9.32;;;5.45;;
45326;SDS011;31062;49.678;24.560;2022-09-13T03:53:52;5.47;;;4.90;;
45326;SDS011;31062;49.678;24.560;2022-09-13T03:56:41;5.55;;;5.05;;
45326;SDS011;31062;49.678;24.560;2022-09-13T03:59:26;5.95;;;5.43;;
45326;SDS011;31062;49.678;24.560;2022-09-13T04:02:12;5.63;;;4.90;;
45326;SDS011;31062;49.678;24.560;2022-09-13T04:04:58;7.28;;;5.47;;
45326;SDS011;31062;49.678;24.560;2022-09-13T04:07:44;7.00;;;6.15;;
45326;SDS011;31062;49.678;24.560;2022-09-13T04:10:30;5.28;;;4.82;;
45326;SDS011;31062;49.678;24.560;2022-09-13T04:13:20;5.22;;;4.72;;
45326;SDS011;31062;49.678;24.560;2022-09-13T04:16:06;7.03;;;5.38;;
45326;SDS011;31062;49.678;24.560;2022-09-13T04:18:52;6.00;;;5.40;;
45326;SDS011;31062;49.678;24.560;2022-09-13T04:21:38;6.25;;;5.40;;
45326;SDS011;31062;49.678;24.560;2022-09-13T04:24:26;5.78;;;5.13;;
45326;SDS011;31062;49.678;24.560;2022-09-13T04:27:13;8.38;;;5.22;;
45326;SDS011;31062;49.678;24.560;2022-09-13T04:29:58;6.63;;;5.00;;
45326;SDS011;31062;49.678;24.560;2022-09-13T04:32:44;7.07;;;5.50;;
45326;SDS011;31062;49.678;24.560;2022-09-13T04:35:29;5.72;;;5.22;;
45326;SDS011;31062;49.678;24.560;2022-09-13T04:38:15;7.18;;;5.97;;
45326;SDS011;31062;49.678;24.560;2022-09-13T04:41:00;6.40;;;5.80;;
45326;SDS011;31062;49.678;24.560;2022-09-13T04:43:49;6.03;;;5.15;;
45326;SDS011;31062;49.678;24.560;2022-09-13T04:46:35;11.07;;;5.78;;
45326;SDS011;31062;49.678;24.560;2022-09-13T04:49:20;5.97;;;5.10;;
45326;SDS011;31062;49.678;24.560;2022-09-13T04:52:05;5.95;;;5.32;;
45326;SDS011;31062;49.678;24.560;2022-09-13T04:54:51;8.15;;;5.90;;
45326;SDS011;31062;49.678;24.560;2022-09-13T04:57:36;6.03;;;5.43;;
45326;SDS011;31062;49.678;24.560;2022-09-13T05:00:22;9.68;;;5.25;;
45326;SDS011;31062;49.678;24.560;2022-09-13T05:03:09;8.18;;;5.10;;
45326;SDS011;31062;49.678;24.560;2022-09-13T05:05:59;6.10;;;5.50;;
45326;SDS011;31062;49.678;24.560;2022-09-13T05:08:49;6.90;;;6.20;;
45326;SDS011;31062;49.678;24.560;2022-09-13T05:11:40;5.32;;;4.82;;
45326;SDS011;31062;49.678;24.560;2022-09-13T05:14:26;7.10;;;6.40;;
45326;SDS011;31062;49.678;24.560;2022-09-13T05:17:12;6.40;;;5.80;;
45326;SDS011;31062;49.678;24.560;2022-09-13T05:19:57;7.22;;;5.57;;
45326;SDS011;31062;49.678;24.560;2022-09-13T05:22:43;9.48;;;5.82;;
45326;SDS011;31062;49.678;24.560;2022-09-13T05:25:28;7.40;;;5.55;;
45326;SDS011;31062;49.678;24.560;2022-09-13T05:28:14;6.18;;;5.57;;
45326;SDS011;31062;49.678;24.560;2022-09-13T05:31:00;7.18;;;5.95;;
45326;SDS011;31062;49.678;24.560;2022-09-13T05:33:58;6.27;;;5.67;;
45326;SDS011;31062;49.678;24.560;2022-09-13T05:36:45;6.63;;;6.03;;
45326;SDS011;31062;49.678;24.560;2022-09-13T05:39:37;6.80;;;5.95;;
45326;SDS011;31062;49.678;24.560;2022-09-13T05:42:42;11.60;;;5.93;;
45326;SDS011;31062;49.678;24.560;2022-09-13T05:45:27;8.00;;;6.43;;
45326;SDS011;31062;49.678;24.560;2022-09-13T05:48:13;6.78;;;6.07;;
45326;SDS011;31062;49.678;24.560;2022-09-13T05:53:51;6.70;;;5.90;;
45326;SDS011;31062;49.678;24.560;2022-09-13T05:56:39;8.40;;;7.35;;
45326;SDS011;31062;49.678;24.560;2022-09-13T05:59:25;9.02;;;7.35;;
45326;SDS011;31062;49.678;24.560;2022-09-13T06:02:10;7.10;;;6.05;;
45326;SDS011;31062;49.678;24.560;2022-09-13T06:04:55;7.90;;;5.93;;
45326;SDS011;31062;49.678;24.560;2022-09-13T06:07:41;7.13;;;6.43;;
45326;SDS011;31062;49.678;24.560;2022-09-13T06:10:27;10.65;;;5.65;;
45326;SDS011;31062;49.678;24.560;2022-09-13T06:13:12;7.82;;;6.97;;
45326;SDS011;31062;49.678;24.560;2022-09-13T06:15:58;8.30;;;6.28;;
45326;SDS011;31062;49.678;24.560;2022-09-13T06:18:45;7.55;;;6.10;;
45326;SDS011;31062;49.678;24.560;2022-09-13T06:21:31;6.03;;;5.45;;
45326;SDS011;31062;49.678;24.560;2022-09-13T06:24:16;8.00;;;5.70;;
45326;SDS011;31062;49.678;24.560;2022-09-13T06:27:02;6.65;;;5.57;;
45326;SDS011;31062;49.678;24.560;2022-09-13T06:29:48;7.03;;;5.53;;
45326;SDS011;31062;49.678;24.560;2022-09-13T06:32:34;5.68;;;5.18;;
45326;SDS011;31062;49.678;24.560;2022-09-13T06:35:20;6.03;;;5.13;;
45326;SDS011;31062;49.678;24.560;2022-09-13T06:38:05;5.82;;;4.53;;
45326;SDS011;31062;49.678;24.560;2022-09-13T06:43:54;5.40;;;4.20;;
45326;SDS011;31062;49.678;24.560;2022-09-13T06:46:41;5.32;;;4.20;;
45326;SDS011;31062;49.678;24.560;2022-09-13T06:49:27;4.47;;;3.85;;
45326;SDS011;31062;49.678;24.560;2022-09-13T06:52:13;4.38;;;3.53;;
45326;SDS011;31062;49.678;24.560;2022-09-13T06:54:59;4.22;;;3.70;;
45326;SDS011;31062;49.678;24.560;2022-09-13T06:57:44;4.15;;;3.55;;
45326;SDS011;31062;49.678;24.560;2022-09-13T07:00:30;4.25;;;3.85;;
45326;SDS011;31062;49.678;24.560;2022-09-13T07:03:15;5.10;;;3.70;;
45326;SDS011;31062;49.678;24.560;2022-09-13T07:06:05;5.60;;;3.50;;
45326;SDS011;31062;49.678;24.560;2022-09-13T07:08:59;3.60;;;3.30;;
45326;SDS011;31062;49.678;24.560;2022-09-13T07:11:46;4.30;;;3.22;;
45326;SDS011;31062;49.678;24.560;2022-09-13T07:14:33;4.25;;;3.63;;
45326;SDS011;31062;49.678;24.560;2022-09-13T07:17:18;4.13;;;3.30;;
45326;SDS011;31062;49.678;24.560;2022-09-13T07:20:04;2.67;;;2.47;;
45326;SDS011;31062;49.678;24.560;2022-09-13T07:22:51;2.90;;;2.70;;
45326;SDS011;31062;49.678;24.560;2022-09-13T07:25:37;2.72;;;2.53;;
45326;SDS011;31062;49.678;24.560;2022-09-13T07:28:23;2.78;;;2.58;;
45326;SDS011;31062;49.678;24.560;2022-09-13T07:34:02;2.75;;;2.55;;
45326;SDS011;31062;49.678;24.560;2022-09-13T07:36:52;2.70;;;2.50;;
45326;SDS011;31062;49.678;24.560;2022-09-13T07:39:39;2.58;;;2.22;;
45326;SDS011;31062;49.678;24.560;2022-09-13T07:42:25;3.13;;;2.83;;
45326;SDS011;31062;49.678;24.560;2022-09-13T07:45:10;3.65;;;2.80;;
45326;SDS011;31062;49.678;24.560;2022-09-13T07:47:57;2.40;;;2.20;;
45326;SDS011;31062;49.678;24.560;2022-09-13T07:50:42;2.92;;;2.40;;
45326;SDS011;31062;49.678;24.560;2022-09-13T07:53:28;5.78;;;3.17;;
45326;SDS011;31062;49.678;24.560;2022-09-13T07:56:19;2.95;;;2.65;;
45326;SDS011;31062;49.678;24.560;2022-09-13T07:59:06;2.28;;;2.17;;
45326;SDS011;31062;49.678;24.560;2022-09-13T08:01:54;2.85;;;2.65;;
45326;SDS011;31062;49.678;24.560;2022-09-13T08:04:40;2.60;;;2.40;;
45326;SDS011;31062;49.678;24.560;2022-09-13T08:07:26;2.45;;;2.25;;
45326;SDS011;31062;49.678;24.560;2022-09-13T08:10:11;6.07;;;1.92;;
45326;SDS011;31062;49.678;24.560;2022-09-13T08:12:57;2.60;;;2.40;;
45326;SDS011;31062;49.678;24.560;2022-09-13T08:15:42;2.40;;;2.20;;
45326;SDS011;31062;49.678;24.560;2022-09-13T08:18:28;2.40;;;2.20;;
45326;SDS011;31062;49.678;24.560;2022-09-13T08:21:14;2.63;;;2.42;;
45326;SDS011;31062;49.678;24.560;2022-09-13T08:24:00;2.30;;;2.10;;
45326;SDS011;31062;49.678;24.560;2022-09-13T08:26:46;2.00;;;1.90;;
45326;SDS011;31062;49.678;24.560;2022-09-13T08:29:32;4.80;;;2.78;;
45326;SDS011;31062;49.678;24.560;2022-09-13T08:32:18;2.38;;;2.13;;
45326;SDS011;31062;49.678;24.560;2022-09-13T08:35:03;2.63;;;2.22;;
45326;SDS011;31062;49.678;24.560;2022-09-13T08:37:49;3.17;;;2.10;;
45326;SDS011;31062;49.678;24.560;2022-09-13T08:40:39;7.15;;;2.10;;
45326;SDS011;31062;49.678;24.560;2022-09-13T08:46:35;2.22;;;2.03;;
45326;SDS011;31062;49.678;24.560;2022-09-13T08:49:27;2.43;;;1.83;;
45326;SDS011;31062;49.678;24.560;2022-09-13T08:59:00;2.90;;;2.17;;
45326;SDS011;31062;49.678;24.560;2022-09-13T09:05:30;1.40;;;1.30;;
45326;SDS011;31062;49.678;24.560;2022-09-13T09:08:27;2.22;;;1.67;;
45326;SDS011;31062;49.678;24.560;2022-09-13T09:17:21;1.70;;;1.60;;
45326;SDS011;31062;49.678;24.560;2022-09-13T09:20:24;1.70;;;1.60;;
45326;SDS011;31062;49.678;24.560;2022-09-13T09:23:16;1.52;;;1.30;;
45326;SDS011;31062;49.678;24.560;2022-09-13T09:26:15;2.95;;;1.50;;
45326;SDS011;31062;49.678;24.560;2022-09-13T09:32:24;1.45;;;1.30;;
45326;SDS011;31062;49.678;24.560;2022-09-13T09:35:27;1.65;;;1.40;;
45326;SDS011;31062;49.678;24.560;2022-09-13T09:38:34;1.63;;;1.50;;
45326;SDS011;31062;49.678;24.560;2022-09-13T09:41:31;4.32;;;1.42;;
45326;SDS011;31062;49.678;24.560;2022-09-13T09:44:20;1.17;;;1.10;;
45326;SDS011;31062;49.678;24.560;2022-09-13T09:47:30;1.55;;;1.45;;
45326;SDS011;31062;49.678;24.560;2022-09-13T09:50:26;1.90;;;1.65;;
45326;SDS011;31062;49.678;24.560;2022-09-13T09:53:18;1.85;;;1.20;;
45326;SDS011;31062;49.678;24.560;2022-09-13T09:56:24;2.75;;;1.52;;
45326;SDS011;31062;49.678;24.560;2022-09-13T09:59:23;0.95;;;0.95;;
45326;SDS011;31062;49.678;24.560;2022-09-13T10:02:15;2.33;;;1.20;;
45326;SDS011;31062;49.678;24.560;2022-09-13T10:05:04;1.13;;;1.13;;
45326;SDS011;31062;49.678;24.560;2022-09-13T10:07:59;1.33;;;1.20;;
45326;SDS011;31062;49.678;24.560;2022-09-13T10:10:53;1.42;;;0.98;;
45326;SDS011;31062;49.678;24.560;2022-09-13T10:13:55;1.65;;;1.50;;
45326;SDS011;31062;49.678;24.560;2022-09-13T10:16:43;3.55;;;1.42;;
45326;SDS011;31062;49.678;24.560;2022-09-13T10:19:29;1.60;;;1.50;;
45326;SDS011;31062;49.678;24.560;2022-09-13T10:22:16;2.58;;;1.02;;
45326;SDS011;31062;49.678;24.560;2022-09-13T10:25:25;1.48;;;1.38;;
45326;SDS011;31062;49.678;24.560;2022-09-13T10:28:16;1.13;;;1.00;;
45326;SDS011;31062;49.678;24.560;2022-09-13T10:31:05;1.33;;;1.20;;
45326;SDS011;31062;49.678;24.560;2022-09-13T10:34:17;1.67;;;0.98;;
45326;SDS011;31062;49.678;24.560;2022-09-13T10:37:18;2.33;;;1.38;;
45326;SDS011;31062;49.678;24.560;2022-09-13T10:40:07;2.55;;;1.40;;
45326;SDS011;31062;49.678;24.560;2022-09-13T10:43:18;1.90;;;1.13;;
45326;SDS011;31062;49.678;24.560;2022-09-13T10:46:07;1.10;;;1.10;;
45326;SDS011;31062;49.678;24.560;2022-09-13T10:48:57;1.88;;;1.30;;
45326;SDS011;31062;49.678;24.560;2022-09-13T10:51:43;1.40;;;1.30;;
45326;SDS011;31062;49.678;24.560;2022-09-13T10:54:28;1.30;;;1.20;;
45326;SDS011;31062;49.678;24.560;2022-09-13T10:57:34;1.70;;;1.30;;
45326;SDS011;31062;49.678;24.560;2022-09-13T11:00:21;2.33;;;1.42;;
45326;SDS011;31062;49.678;24.560;2022-09-13T11:06:39;1.70;;;1.27;;
45326;SDS011;31062;49.678;24.560;2022-09-13T11:10:16;3.78;;;1.67;;
45326;SDS011;31062;49.678;24.560;2022-09-13T11:26:02;3.25;;;1.60;;
45326;SDS011;31062;49.678;24.560;2022-09-13T11:48:20;1.70;;;1.45;;
45326;SDS011;31062;49.678;24.560;2022-09-13T11:54:06;2.03;;;1.70;;
45326;SDS011;31062;49.678;24.560;2022-09-13T11:57:02;2.15;;;1.58;;
45326;SDS011;31062;49.678;24.560;2022-09-13T12:03:17;1.60;;;1.50;;
45326;SDS011;31062;49.678;24.560;2022-09-13T12:05:59;4.20;;;1.50;;
45326;SDS011;31062;49.678;24.560;2022-09-13T12:08:48;2.08;;;1.58;;
45326;SDS011;31062;49.678;24.560;2022-09-13T12:11:36;1.52;;;1.42;;
45326;SDS011;31062;49.678;24.560;2022-09-13T12:14:27;1.67;;;1.58;;
45326;SDS011;31062;49.678;24.560;2022-09-13T12:23:29;2.83;;;1.58;;
45326;SDS011;31062;49.678;24.560;2022-09-13T12:26:19;2.55;;;2.28;;
45326;SDS011;31062;49.678;24.560;2022-09-13T12:32:33;1.47;;;1.37;;
45326;SDS011;31062;49.678;24.560;2022-09-13T12:35:31;2.10;;;1.60;;
45326;SDS011;31062;49.678;24.560;2022-09-13T12:56:54;2.13;;;1.35;;
45326;SDS011;31062;49.678;24.560;2022-09-13T13:03:01;2.00;;;1.73;;
45326;SDS011;31062;49.678;24.560;2022-09-13T13:06:46;2.30;;;2.10;;
45326;SDS011;31062;49.678;24.560;2022-09-13T13:12:36;7.93;;;2.00;;
45326;SDS011;31062;49.678;24.560;2022-09-13T13:21:36;2.13;;;1.48;;
45326;SDS011;31062;49.678;24.560;2022-09-13T13:33:25;3.35;;;1.55;;
45326;SDS011;31062;49.678;24.560;2022-09-13T13:36:23;3.17;;;1.80;;
45326;SDS011;31062;49.678;24.560;2022-09-13T13:42:24;5.90;;;2.53;;
45326;SDS011;31062;49.678;24.560;2022-09-13T13:45:22;2.03;;;1.85;;
45326;SDS011;31062;49.678;24.560;2022-09-13T13:48:11;4.00;;;1.63;;
45326;SDS011;31062;49.678;24.560;2022-09-13T13:51:13;1.85;;;1.75;;
45326;SDS011;31062;49.678;24.560;2022-09-13T13:54:02;2.38;;;1.60;;
45326;SDS011;31062;49.678;24.560;2022-09-13T14:00:17;1.88;;;1.67;;
45326;SDS011;31062;49.678;24.560;2022-09-13T14:03:28;2.83;;;1.60;;
45326;SDS011;31062;49.678;24.560;2022-09-13T14:10:13;2.13;;;2.03;;
45326;SDS011;31062;49.678;24.560;2022-09-13T14:25:13;3.90;;;2.00;;
45326;SDS011;31062;49.678;24.560;2022-09-13T14:28:02;4.03;;;1.70;;
45326;SDS011;31062;49.678;24.560;2022-09-13T14:30:52;3.38;;;2.00;;
45326;SDS011;31062;49.678;24.560;2022-09-13T14:33:39;6.57;;;2.15;;
45326;SDS011;31062;49.678;24.560;2022-09-13T14:36:24;2.30;;;2.08;;
45326;SDS011;31062;49.678;24.560;2022-09-13T14:39:12;2.00;;;1.85;;
45326;SDS011;31062;49.678;24.560;2022-09-13T14:42:18;3.97;;;2.15;;
45326;SDS011;31062;49.678;24.560;2022-09-13T14:45:02;2.42;;;2.20;;
45326;SDS011;31062;49.678;24.560;2022-09-13T14:47:54;3.78;;;2.10;;
45326;SDS011;31062;49.678;24.560;2022-09-13T14:51:03;1.98;;;1.70;;
45326;SDS011;31062;49.678;24.560;2022-09-13T14:53:58;3.20;;;2.30;;
45326;SDS011;31062;49.678;24.560;2022-09-13T14:56:53;10.80;;;2.38;;
45326;SDS011;31062;49.678;24.560;2022-09-13T14:59:43;2.40;;;2.20;;
45326;SDS011;31062;49.678;24.560;2022-09-13T15:02:37;4.23;;;2.23;;
45326;SDS011;31062;49.678;24.560;2022-09-13T15:05:30;3.85;;;2.60;;
45326;SDS011;31062;49.678;24.560;2022-09-13T15:08:27;3.35;;;2.45;;
45326;SDS011;31062;49.678;24.560;2022-09-13T15:11:29;4.05;;;2.20;;
45326;SDS011;31062;49.678;24.560;2022-09-13T15:17:23;4.60;;;1.88;;
45326;SDS011;31062;49.678;24.560;2022-09-13T15:20:10;6.40;;;2.03;;
45326;SDS011;31062;49.678;24.560;2022-09-13T15:22:56;2.80;;;2.05;;
45326;SDS011;31062;49.678;24.560;2022-09-13T15:25:50;6.90;;;2.95;;
45326;SDS011;31062;49.678;24.560;2022-09-13T15:28:50;3.13;;;2.60;;
45326;SDS011;31062;49.678;24.560;2022-09-13T15:31:37;3.13;;;2.10;;
45326;SDS011;31062;49.678;24.560;2022-09-13T15:34:23;4.80;;;2.65;;
45326;SDS011;31062;49.678;24.560;2022-09-13T15:37:10;2.80;;;2.40;;
45326;SDS011;31062;49.678;24.560;2022-09-13T15:40:14;2.78;;;2.33;;
45326;SDS011;31062;49.678;24.560;2022-09-13T15:43:05;3.60;;;2.50;;
45326;SDS011;31062;49.678;24.560;2022-09-13T15:45:51;2.30;;;2.10;;
45326;SDS011;31062;49.678;24.560;2022-09-13T15:48:38;4.28;;;2.38;;
45326;SDS011;31062;49.678;24.560;2022-09-13T15:51:43;2.53;;;2.03;;
45326;SDS011;31062;49.678;24.560;2022-09-13T15:54:37;3.33;;;2.40;;
45326;SDS011;31062;49.678;24.560;2022-09-13T15:57:27;5.10;;;2.15;;
45326;SDS011;31062;49.678;24.560;2022-09-13T16:00:15;3.95;;;2.40;;
45326;SDS011;31062;49.678;24.560;2022-09-13T16:03:03;4.63;;;2.20;;
45326;SDS011;31062;49.678;24.560;2022-09-13T16:05:49;3.45;;;2.70;;
45326;SDS011;31062;49.678;24.560;2022-09-13T16:08:36;6.25;;;2.88;;
45326;SDS011;31062;49.678;24.560;2022-09-13T16:11:22;6.53;;;2.90;;
45326;SDS011;31062;49.678;24.560;2022-09-13T16:14:08;6.43;;;3.05;;
45326;SDS011;31062;49.678;24.560;2022-09-13T16:16:53;3.90;;;2.58;;
45326;SDS011;31062;49.678;24.560;2022-09-13T16:19:41;10.20;;;2.65;;
45326;SDS011;31062;49.678;24.560;2022-09-13T16:22:27;17.10;;;4.65;;
45326;SDS011;31062;49.678;24.560;2022-09-13T16:25:13;8.70;;;4.22;;
45326;SDS011;31062;49.678;24.560;2022-09-13T16:28:01;7.68;;;4.32;;
45326;SDS011;31062;49.678;24.560;2022-09-13T16:30:49;4.20;;;3.80;;
45326;SDS011;31062;49.678;24.560;2022-09-13T16:33:37;3.72;;;3.08;;
45326;SDS011;31062;49.678;24.560;2022-09-13T16:36:24;11.75;;;4.40;;
45326;SDS011;31062;49.678;24.560;2022-09-13T16:39:13;4.25;;;3.00;;
45326;SDS011;31062;49.678;24.560;2022-09-13T16:41:59;9.50;;;3.60;;
45326;SDS011;31062;49.678;24.560;2022-09-13T16:44:45;9.05;;;4.50;;
45326;SDS011;31062;49.678;24.560;2022-09-13T16:47:33;9.80;;;4.63;;
45326;SDS011;31062;49.678;24.560;2022-09-13T16:50:19;12.73;;;4.30;;
45326;SDS011;31062;49.678;24.560;2022-09-13T16:53:06;10.20;;;5.97;;
45326;SDS011;31062;49.678;24.560;2022-09-13T16:55:53;15.93;;;5.63;;
45326;SDS011;31062;49.678;24.560;2022-09-13T16:58:51;4.45;;;3.30;;
45326;SDS011;31062;49.678;24.560;2022-09-13T17:01:38;6.68;;;3.28;;
45326;SDS011;31062;49.678;24.560;2022-09-13T17:04:24;8.50;;;3.30;;
45326;SDS011;31062;49.678;24.560;2022-09-13T17:07:10;6.38;;;2.85;;
45326;SDS011;31062;49.678;24.560;2022-09-13T17:09:57;7.93;;;2.75;;
45326;SDS011;31062;49.678;24.560;2022-09-13T17:12:44;4.32;;;2.38;;
45326;SDS011;31062;49.678;24.560;2022-09-13T17:15:29;4.25;;;2.60;;
45326;SDS011;31062;49.678;24.560;2022-09-13T17:18:15;7.05;;;2.70;;
45326;SDS011;31062;49.678;24.560;2022-09-13T17:21:01;6.30;;;2.95;;
45326;SDS011;31062;49.678;24.560;2022-09-13T17:23:46;7.80;;;3.78;;
45326;SDS011;31062;49.678;24.560;2022-09-13T17:26:33;10.40;;;3.95;;
45326;SDS011;31062;49.678;24.560;2022-09-13T17:29:20;8.63;;;3.88;;
45326;SDS011;31062;49.678;24.560;2022-09-13T17:32:06;12.50;;;4.00;;
45326;SDS011;31062;49.678;24.560;2022-09-13T17:34:52;4.82;;;2.33;;
45326;SDS011;31062;49.678;24.560;2022-09-13T17:37:38;4.68;;;2.78;;
45326;SDS011;31062;49.678;24.560;2022-09-13T17:40:24;11.00;;;2.88;;
45326;SDS011;31062;49.678;24.560;2022-09-13T17:43:11;13.80;;;3.00;;
45326;SDS011;31062;49.678;24.560;2022-09-13T17:46:03;4.88;;;2.55;;
45326;SDS011;31062;49.678;24.560;2022-09-13T17:48:54;9.68;;;2.90;;
45326;SDS011;31062;49.678;24.560;2022-09-13T17:51:43;5.93;;;2.72;;
45326;SDS011;31062;49.678;24.560;2022-09-13T17:54:28;8.40;;;3.63;;
45326;SDS011;31062;49.678;24.560;2022-09-13T17:57:14;9.50;;;4.05;;
45326;SDS011;31062;49.678;24.560;2022-09-13T18:00:00;9.95;;;4.38;;
45326;SDS011;31062;49.678;24.560;2022-09-13T18:02:48;7.28;;;4.03;;
45326;SDS011;31062;49.678;24.560;2022-09-13T18:05:33;10.52;;;4.10;;
45326;SDS011;31062;49.678;24.560;2022-09-13T18:08:19;9.38;;;4.30;;
45326;SDS011;31062;49.678;24.560;2022-09-13T18:11:05;12.18;;;5.80;;
45326;SDS011;31062;49.678;24.560;2022-09-13T18:14:06;11.60;;;6.45;;
45326;SDS011;31062;49.678;24.560;2022-09-13T18:16:56;11.32;;;7.35;;
45326;SDS011;31062;49.678;24.560;2022-09-13T18:19:42;15.70;;;8.20;;
45326;SDS011;31062;49.678;24.560;2022-09-13T18:22:32;15.88;;;6.55;;
45326;SDS011;31062;49.678;24.560;2022-09-13T18:25:19;9.48;;;7.07;;
45326;SDS011;31062;49.678;24.560;2022-09-13T18:28:07;12.32;;;6.35;;
45326;SDS011;31062;49.678;24.560;2022-09-13T18:30:54;8.82;;;5.20;;
45326;SDS011;31062;49.678;24.560;2022-09-13T18:33:40;7.10;;;5.00;;
45326;SDS011;31062;49.678;24.560;2022-09-13T18:36:27;8.10;;;4.75;;
45326;SDS011;31062;49.678;24.560;2022-09-13T18:39:18;9.05;;;4.40;;
45326;SDS011;31062;49.678;24.560;2022-09-13T18:42:06;6.75;;;4.13;;
45326;SDS011;31062;49.678;24.560;2022-09-13T18:44:52;10.10;;;4.78;;
45326;SDS011;31062;49.678;24.560;2022-09-13T18:47:38;7.47;;;4.07;;
45326;SDS011;31062;49.678;24.560;2022-09-13T18:50:24;5.60;;;4.15;;
45326;SDS011;31062;49.678;24.560;2022-09-13T18:53:09;6.72;;;4.82;;
45326;SDS011;31062;49.678;24.560;2022-09-13T18:55:55;8.80;;;5.65;;
45326;SDS011;31062;49.678;24.560;2022-09-13T18:58:51;7.43;;;5.97;;
45326;SDS011;31062;49.678;24.560;2022-09-13T19:01:39;14.38;;;6.47;;
45326;SDS011;31062;49.678;24.560;2022-09-13T19:04:26;9.70;;;5.72;;
45326;SDS011;31062;49.678;24.560;2022-09-13T19:07:11;8.45;;;4.80;;
45326;SDS011;31062;49.678;24.560;2022-09-13T19:09:57;10.65;;;7.93;;
45326;SDS011;31062;49.678;24.560;2022-09-13T19:12:43;16.27;;;7.75;;
45326;SDS011;31062;49.678;24.560;2022-09-13T19:15:28;10.30;;;6.43;;
45326;SDS011;31062;49.678;24.560;2022-09-13T19:18:15;14.20;;;7.93;;
45326;SDS011;31062;49.678;24.560;2022-09-13T19:21:05;9.55;;;6.82;;
45326;SDS011;31062;49.678;24.560;2022-09-13T19:23:53;11.70;;;6.68;;
45326;SDS011;31062;49.678;24.560;2022-09-13T19:26:53;10.63;;;5.90;;
45326;SDS011;31062;49.678;24.560;2022-09-13T19:29:39;10.07;;;5.60;;
45326;SDS011;31062;49.678;24.560;2022-09-13T19:32:25;13.13;;;5.82;;
45326;SDS011;31062;49.678;24.560;2022-09-13T19:35:10;9.93;;;5.05;;
45326;SDS011;31062;49.678;24.560;2022-09-13T19:37:56;6.90;;;4.75;;
45326;SDS011;31062;49.678;24.560;2022-09-13T19:40:41;4.95;;;4.00;;
45326;SDS011;31062;49.678;24.560;2022-09-13T19:43:27;5.40;;;4.22;;
45326;SDS011;31062;49.678;24.560;2022-09-13T19:46:16;8.00;;;4.68;;
45326;SDS011;31062;49.678;24.560;2022-09-13T19:49:05;6.55;;;4.45;;
45326;SDS011;31062;49.678;24.560;2022-09-13T19:51:53;5.15;;;4.38;;
45326;SDS011;31062;49.678;24.560;2022-09-13T19:54:38;6.82;;;5.15;;
45326;SDS011;31062;49.678;24.560;2022-09-13T19:57:24;5.90;;;4.47;;
45326;SDS011;31062;49.678;24.560;2022-09-13T20:00:10;8.25;;;4.30;;
45326;SDS011;31062;49.678;24.560;2022-09-13T20:02:57;7.38;;;4.47;;
45326;SDS011;31062;49.678;24.560;2022-09-13T20:05:44;9.93;;;4.57;;
45326;SDS011;31062;49.678;24.560;2022-09-13T20:08:29;16.20;;;5.22;;
45326;SDS011;31062;49.678;24.560;2022-09-13T20:11:15;5.97;;;4.90;;
45326;SDS011;31062;49.678;24.560;2022-09-13T20:14:02;8.25;;;5.13;;
45326;SDS011;31062;49.678;24.560;2022-09-13T20:16:48;5.50;;;4.35;;